createdAt,value
2019-03-04T00:01:24.296Z,71.1
2019-03-04T00:06:20.898Z,71.1
2019-03-04T00:11:17.758Z,71.7
2019-03-04T00:16:14.124Z,73
2019-03-04T00:21:10.614Z,73.8
2019-03-04T00:26:07.180Z,74.3
2019-03-04T00:31:03.353Z,74.8
2019-03-04T00:35:59.647Z,76.5
2019-03-04T00:40:56.609Z,74.4
2019-03-04T00:45:53.128Z,76.6
2019-03-04T00:50:49.601Z,77
2019-03-04T00:55:45.944Z,78.3
2019-03-04T01:00:42.576Z,80.6
2019-03-04T01:05:39.343Z,79.6
2019-03-04T01:10:35.584Z,80.2
2019-03-04T01:15:32.313Z,79.4
2019-03-04T01:20:29.093Z,80.4
2019-03-04T01:25:25.833Z,80.4
2019-03-04T01:30:22.750Z,80.3
2019-03-04T01:35:19.454Z,80.8
2019-03-04T01:40:16.090Z,81.2
2019-03-04T01:45:12.660Z,80.6
2019-03-04T01:50:08.822Z,82.4
2019-03-04T01:55:05.086Z,81.3
2019-03-04T02:00:00.760Z,81.7
2019-03-04T02:04:56.783Z,82
2019-03-04T02:09:52.224Z,82.1
2019-03-04T02:14:48.457Z,81.8
2019-03-04T02:19:44.635Z,82.7
2019-03-04T02:24:41.151Z,82.1
2019-03-04T02:29:37.541Z,82.7
2019-03-04T02:34:34.025Z,82.9
2019-03-04T02:39:30.486Z,82.5
2019-03-04T02:44:27.263Z,81.2
2019-03-04T02:49:22.773Z,82.8
2019-03-04T02:54:19.272Z,83.2
2019-03-04T02:59:15.729Z,83.4
2019-03-04T03:04:12.344Z,83.3
2019-03-04T03:09:08.465Z,84.2
2019-03-04T03:14:04.813Z,84
2019-03-04T03:19:01.414Z,84.7
2019-03-04T03:23:59.723Z,83.9
2019-03-04T03:28:55.684Z,83.4
2019-03-04T03:33:52.069Z,84.3
2019-03-04T03:38:48.593Z,84.7
2019-03-04T03:43:45.201Z,85.1
2019-03-04T03:48:40.998Z,84.2
2019-03-04T03:53:37.466Z,84
2019-03-04T03:58:33.986Z,85.3
2019-03-04T04:03:30.456Z,84.9
2019-03-04T04:08:26.930Z,84.9
2019-03-04T04:13:23.317Z,86.2
2019-03-04T04:18:20.141Z,86.2
2019-03-04T04:23:16.434Z,87.1
2019-03-04T04:28:13.034Z,86.3
2019-03-04T04:33:09.433Z,85.8
2019-03-04T04:38:05.850Z,86
2019-03-04T04:43:02.289Z,86.8
2019-03-04T04:47:59.059Z,86.4
2019-03-04T04:52:55.687Z,87.8
2019-03-04T04:57:52.249Z,88.1
2019-03-04T05:02:48.943Z,85.5
2019-03-04T05:07:45.756Z,84.7
2019-03-04T05:12:42.214Z,84.1
2019-03-04T05:17:40.066Z,83.7
2019-03-04T05:22:36.651Z,85.4
2019-03-04T05:27:33.468Z,83.7
2019-03-04T05:32:30.001Z,81.6
2019-03-04T05:37:27.109Z,82.1
2019-03-04T05:42:25.127Z,82.2
2019-03-04T05:47:21.800Z,83
2019-03-04T05:52:18.314Z,76.7
2019-03-04T05:57:17.010Z,75.2
2019-03-04T06:02:17.009Z,67
2019-03-04T06:07:13.830Z,70
2019-03-04T06:12:10.156Z,67.4
2019-03-04T06:17:08.537Z,70.9
2019-03-04T06:22:03.499Z,65.9
2019-03-04T06:26:57.851Z,71.5
2019-03-04T06:31:54.833Z,69.2
2019-03-04T06:36:53.272Z,71
2019-03-04T06:41:49.222Z,72.5
2019-03-04T06:46:45.743Z,67.7
2019-03-04T06:51:42.805Z,68.4
2019-03-04T06:56:39.131Z,67.8
2019-03-04T07:01:35.721Z,70.8
2019-03-04T07:06:32.488Z,73.1
2019-03-04T07:11:29.105Z,75
2019-03-04T07:16:26.283Z,73.5
2019-03-04T07:21:23.569Z,71.3
2019-03-04T07:26:20.619Z,69.3
2019-03-04T07:31:16.415Z,69.2
2019-03-04T07:36:13.184Z,70.4
2019-03-04T07:41:09.865Z,68.1
2019-03-04T07:46:06.964Z,68.7
2019-03-04T07:51:03.678Z,66.2
2019-03-04T07:56:01.334Z,64.1
2019-03-04T08:00:57.546Z,62.8
2019-03-04T08:05:55.214Z,60.9
2019-03-04T08:10:51.391Z,60
2019-03-04T08:15:48.761Z,58.8
2019-03-04T08:20:45.427Z,57.2
2019-03-04T08:25:43.469Z,55.2
2019-03-04T08:30:40.043Z,53.8
2019-03-04T08:35:37.479Z,53.3
2019-03-04T08:40:34.380Z,52.8
2019-03-04T08:45:31.712Z,51.6
2019-03-04T08:50:28.979Z,51
2019-03-04T08:55:27.346Z,49.5
2019-03-04T09:00:23.851Z,50.6
2019-03-04T09:05:21.900Z,48.2
2019-03-04T09:10:17.589Z,49.6
2019-03-04T09:15:14.617Z,46.5
2019-03-04T09:20:11.679Z,44
2019-03-04T09:25:07.867Z,45.5
2019-03-04T09:30:05.693Z,42.8
2019-03-04T09:35:01.320Z,45.1
2019-03-04T09:39:57.745Z,43.4
2019-03-04T09:44:55.374Z,42.4
2019-03-04T09:49:51.355Z,45.1
2019-03-04T09:54:49.455Z,44.7
2019-03-04T09:59:49.399Z,40.7
2019-03-04T10:04:45.540Z,38.8
2019-03-04T10:09:42.414Z,40.5
2019-03-04T10:14:40.069Z,38.8
2019-03-04T10:19:34.422Z,40.8
2019-03-04T10:24:33.602Z,37.4
2019-03-04T10:29:30.706Z,37.8
2019-03-04T10:34:27.424Z,37.7
2019-03-04T10:39:24.730Z,36.8
2019-03-04T10:44:21.133Z,39
2019-03-04T10:49:18.391Z,35.5
2019-03-04T10:54:15.156Z,37.9
2019-03-04T10:59:13.674Z,33.4
2019-03-04T11:04:10.118Z,34.3
2019-03-04T11:09:07.478Z,32.9
2019-03-04T11:14:04.740Z,34.6
2019-03-04T11:19:01.530Z,34.9
2019-03-04T11:23:59.082Z,34.5
2019-03-04T11:28:56.847Z,34
2019-03-04T11:33:52.376Z,33.5
2019-03-04T11:38:49.053Z,34.8
2019-03-04T11:43:46.392Z,33.6
2019-03-04T11:48:42.523Z,34.5
2019-03-04T11:53:39.392Z,35.5
2019-03-04T11:58:36.977Z,33.8
2019-03-04T12:03:33.894Z,33.4
2019-03-04T12:08:29.850Z,33.8
2019-03-04T12:13:26.321Z,33.1
2019-03-04T12:18:23.534Z,33.3
2019-03-04T12:23:20.420Z,32.4
2019-03-04T12:28:17.010Z,32
2019-03-04T12:33:14.227Z,31.2
2019-03-04T12:38:11.307Z,32.8
2019-03-04T12:43:07.657Z,31.7
2019-03-04T12:48:04.246Z,31.1
2019-03-04T12:53:01.002Z,31.6
2019-03-04T12:57:58.141Z,32.4
2019-03-04T13:02:58.299Z,31.4
2019-03-04T13:07:54.169Z,32.3
2019-03-04T13:12:51.361Z,30
2019-03-04T13:17:48.062Z,32.1
2019-03-04T13:22:45.223Z,31.6
2019-03-04T13:27:41.732Z,31.5
2019-03-04T13:32:39.373Z,29.9
2019-03-04T13:37:38.197Z,30.1
2019-03-04T13:42:34.388Z,29.7
2019-03-04T13:47:32.007Z,30.2
2019-03-04T13:52:28.838Z,29.7
2019-03-04T13:57:25.995Z,30.4
2019-03-04T14:02:22.850Z,29.8
2019-03-04T14:07:19.656Z,29.2
2019-03-04T14:12:16.655Z,31
2019-03-04T14:17:14.428Z,30
2019-03-04T14:22:11.010Z,30.4
2019-03-04T14:27:07.748Z,31.1
2019-03-04T14:32:03.755Z,32.9
2019-03-04T14:37:00.726Z,32.7
2019-03-04T14:41:57.223Z,34.4
2019-03-04T14:46:54.239Z,33.9
2019-03-04T14:51:50.582Z,33.4
2019-03-04T14:56:47.727Z,33.5
2019-03-04T15:01:43.955Z,35.3
2019-03-04T15:06:40.697Z,34.9
2019-03-04T15:11:37.359Z,33.7
2019-03-04T15:16:33.854Z,36
2019-03-04T15:21:30.596Z,36.4
2019-03-04T15:26:27.870Z,36.4
2019-03-04T15:31:26.515Z,36.4
2019-03-04T15:36:22.631Z,37.5
2019-03-04T15:41:19.515Z,37.6
2019-03-04T15:46:16.329Z,36.8
2019-03-04T15:51:12.903Z,37.8
2019-03-04T15:56:10.192Z,37.7
2019-03-04T16:01:06.907Z,37.7
2019-03-04T16:06:03.538Z,38.2
2019-03-04T16:10:59.830Z,39.4
2019-03-04T16:15:56.465Z,38.8
2019-03-04T16:20:53.505Z,38.7
2019-03-04T16:25:49.686Z,39.8
2019-03-04T16:30:46.242Z,40
2019-03-04T16:35:42.818Z,39.9
2019-03-04T16:40:39.761Z,39.6
2019-03-04T16:45:36.438Z,39.7
2019-03-04T16:50:33.145Z,40.4
2019-03-04T16:55:29.528Z,40.2
2019-03-04T17:00:26.372Z,40.4
2019-03-04T17:05:22.798Z,41.2
2019-03-04T17:10:19.577Z,42.4
2019-03-04T17:15:16.271Z,42.4
2019-03-04T17:20:13.419Z,42.5
2019-03-04T17:25:10.033Z,43.2
2019-03-04T17:30:07.005Z,43.2
2019-03-04T17:35:03.856Z,42.4
2019-03-04T17:40:00.616Z,41.9
2019-03-04T17:44:56.944Z,41.2
2019-03-04T17:49:53.391Z,42.9
2019-03-04T17:54:50.075Z,42
2019-03-04T17:59:46.770Z,42.9
2019-03-04T18:04:43.455Z,43.3
2019-03-04T18:09:39.984Z,42.3
2019-03-04T18:14:36.490Z,42.4
2019-03-04T18:19:33.098Z,42.9
2019-03-04T18:24:29.717Z,43.7
2019-03-04T18:29:26.568Z,43.3
2019-03-04T18:34:23.047Z,43.1
2019-03-04T18:39:19.662Z,43.2
2019-03-04T18:44:16.587Z,42.2
2019-03-04T18:49:13.259Z,43.9
2019-03-04T18:54:09.500Z,43.1
2019-03-04T18:59:06.289Z,44.1
2019-03-04T19:04:03.075Z,43.6
2019-03-04T19:08:59.863Z,43.7
2019-03-04T19:13:56.640Z,43.7
2019-03-04T19:18:52.975Z,43.6
2019-03-04T19:23:49.857Z,43.3
2019-03-04T19:28:46.315Z,44.2
2019-03-04T19:33:43.111Z,45.2
2019-03-04T19:38:39.601Z,45.3
2019-03-04T19:43:36.603Z,45.3
2019-03-04T19:48:33.270Z,45.9
2019-03-04T19:53:30.018Z,44.9
2019-03-04T19:58:26.790Z,45.4
2019-03-04T20:03:23.851Z,45
2019-03-04T20:08:20.644Z,44.5
2019-03-04T20:13:17.145Z,46
2019-03-04T20:18:14.052Z,44.6
2019-03-04T20:23:10.634Z,44.1
2019-03-04T20:28:07.341Z,44.8
2019-03-04T20:33:03.719Z,44.7
2019-03-04T20:38:00.538Z,44.7
2019-03-04T20:42:57.105Z,44.8
2019-03-04T20:47:53.635Z,45.6
2019-03-04T20:52:50.616Z,45
2019-03-04T20:57:47.057Z,45.6
2019-03-04T21:02:43.883Z,45.3
2019-03-04T21:07:40.410Z,45.7
2019-03-04T21:12:37.289Z,47.1
2019-03-04T21:17:34.229Z,46.9
2019-03-04T21:22:31.130Z,46.4
2019-03-04T21:27:27.522Z,47.6
2019-03-04T21:32:24.081Z,46.9
2019-03-04T21:37:20.376Z,47.8
2019-03-04T21:42:16.918Z,48
2019-03-04T21:47:13.221Z,49.9
2019-03-04T21:52:20.726Z,50.5
2019-03-04T21:57:15.360Z,50.1
2019-03-04T22:02:12.069Z,51.9
2019-03-04T22:07:08.340Z,50.3
2019-03-04T22:12:03.949Z,54.5
2019-03-04T22:17:00.623Z,56.2
2019-03-04T22:21:57.201Z,57.8
2019-03-04T22:26:53.651Z,59.3
2019-03-04T22:31:50.265Z,58.3
2019-03-04T22:36:47.661Z,58.6
2019-03-04T22:41:44.565Z,58.7
2019-03-04T22:46:41.258Z,58.9
2019-03-04T22:51:37.245Z,59.5
2019-03-04T22:56:34.242Z,58.6
2019-03-04T23:01:30.323Z,62
2019-03-04T23:06:26.782Z,62.2
2019-03-04T23:11:23.260Z,61.2
2019-03-04T23:16:19.878Z,63.7
2019-03-04T23:21:16.414Z,64
2019-03-04T23:26:13.040Z,63.8
2019-03-04T23:31:09.475Z,64.2
2019-03-04T23:36:05.257Z,64.7
2019-03-04T23:41:01.105Z,66
2019-03-04T23:45:57.746Z,66.1
2019-03-04T23:50:54.452Z,67.6
2019-03-04T23:55:50.923Z,67.4
